AKU416 NZWN-NZNS
Flight info
| Callsign | AKU416 |
|---|---|
| Flight time | 0h 50m |
| Altitude | 6000 |
| Route | NULKO Q235 NS |
| Aircraft | C208/L-SDFGR/C |
Departure
| Time | 2026-05-07 01:37 |
|---|---|
| Airport | Wellington International Airport (NZWN) |
Arrival
| Time | 2026-05-07 02:27 |
|---|---|
| Airport | Nelson Airport (NZNS) |
| Time | Latitude | Longitude | Altitude | Speed | Heading |
|---|---|---|---|---|---|
| 2026-05-07 01:25 | -41.33141 | 174.81114 | 25 ft | 0 kts | 349° |
| 2026-05-07 01:26 | -41.33140 | 174.81114 | 25 ft | 0 kts | 349° |
| 2026-05-07 01:26 | -41.33141 | 174.81114 | 25 ft | 0 kts | 349° |
| 2026-05-07 01:28 | -41.33140 | 174.81114 | 25 ft | 0 kts | 349° |
| 2026-05-07 01:28 | -41.33141 | 174.81114 | 25 ft | 0 kts | 349° |
| 2026-05-07 01:33 | -41.33140 | 174.81114 | 25 ft | 1 kts | 1° |
| 2026-05-07 01:34 | -41.33179 | 174.81131 | 25 ft | 13 kts | 189° |
| 2026-05-07 01:34 | -41.33249 | 174.81075 | 25 ft | 13 kts | 255° |
| 2026-05-07 01:34 | -41.33245 | 174.80998 | 25 ft | 8 kts | 282° |
| 2026-05-07 01:34 | -41.33236 | 174.80892 | 27 ft | 14 kts | 272° |
| 2026-05-07 01:35 | -41.33249 | 174.80789 | 25 ft | 12 kts | 204° |
| 2026-05-07 01:35 | -41.33339 | 174.80776 | 25 ft | 14 kts | 183° |
| 2026-05-07 01:35 | -41.33480 | 174.80768 | 25 ft | 15 kts | 182° |
| 2026-05-07 01:35 | -41.33543 | 174.80747 | 26 ft | 13 kts | 214° |
| 2026-05-07 01:36 | -41.33576 | 174.80667 | 25 ft | 7 kts | 262° |
| 2026-05-07 01:36 | -41.33530 | 174.80634 | 25 ft | 18 kts | 4° |
| 2026-05-07 01:36 | -41.33276 | 174.80649 | 33 ft | 52 kts | 4° |
| 2026-05-07 01:36 | -41.32901 | 174.80685 | 195 ft | 55 kts | 355° |
| 2026-05-07 01:37 | -41.32514 | 174.80674 | 374 ft | 55 kts | 356° |
| 2026-05-07 01:37 | -41.32134 | 174.80617 | 538 ft | 55 kts | 351° |
| 2026-05-07 01:37 | -41.31768 | 174.80565 | 764 ft | 51 kts | 354° |
| 2026-05-07 01:37 | -41.31522 | 174.80594 | 850 ft | 60 kts | 6° |
| 2026-05-07 01:38 | -41.31108 | 174.80681 | 1074 ft | 57 kts | 2° |
| 2026-05-07 01:38 | -41.30746 | 174.80801 | 1303 ft | 51 kts | 1° |
| 2026-05-07 01:38 | -41.30421 | 174.80975 | 1514 ft | 46 kts | 1° |
| 2026-05-07 01:38 | -41.30164 | 174.80857 | 1626 ft | 47 kts | 347° |
| 2026-05-07 01:39 | -41.29804 | 174.80882 | 1741 ft | 56 kts | 346° |
| 2026-05-07 01:39 | -41.29378 | 174.80813 | 1909 ft | 68 kts | 346° |
| 2026-05-07 01:39 | -41.28878 | 174.80694 | 2105 ft | 77 kts | 343° |
| 2026-05-07 01:39 | -41.28334 | 174.80499 | 2302 ft | 84 kts | 339° |
| 2026-05-07 01:40 | -41.27779 | 174.80220 | 2472 ft | 86 kts | 336° |
| 2026-05-07 01:40 | -41.27235 | 174.79856 | 2642 ft | 89 kts | 332° |
| 2026-05-07 01:40 | -41.26712 | 174.79409 | 2807 ft | 90 kts | 327° |
| 2026-05-07 01:40 | -41.26217 | 174.78878 | 2995 ft | 93 kts | 323° |
| 2026-05-07 01:41 | -41.25754 | 174.78268 | 3187 ft | 98 kts | 320° |
| 2026-05-07 01:41 | -41.25272 | 174.77629 | 3371 ft | 99 kts | 319° |
| 2026-05-07 01:41 | -41.24770 | 174.76964 | 3536 ft | 103 kts | 320° |
| 2026-05-07 01:41 | -41.24276 | 174.76306 | 3708 ft | 99 kts | 320° |
| 2026-05-07 01:42 | -41.23794 | 174.75669 | 3909 ft | 100 kts | 318° |
| 2026-05-07 01:42 | -41.23280 | 174.74993 | 4098 ft | 107 kts | 319° |
| 2026-05-07 01:42 | -41.22838 | 174.74419 | 4236 ft | 110 kts | 319° |
| 2026-05-07 01:42 | -41.22304 | 174.73723 | 4380 ft | 102 kts | 320° |
| 2026-05-07 01:43 | -41.21809 | 174.73065 | 4575 ft | 99 kts | 320° |
| 2026-05-07 01:43 | -41.21343 | 174.72448 | 4743 ft | 94 kts | 319° |
| 2026-05-07 01:43 | -41.20858 | 174.71825 | 4924 ft | 100 kts | 317° |
| 2026-05-07 01:43 | -41.20357 | 174.71174 | 5096 ft | 101 kts | 317° |
| 2026-05-07 01:44 | -41.19855 | 174.70518 | 5273 ft | 102 kts | 317° |
| 2026-05-07 01:44 | -41.19346 | 174.69852 | 5447 ft | 103 kts | 317° |
| 2026-05-07 01:44 | -41.18834 | 174.69184 | 5624 ft | 103 kts | 317° |
| 2026-05-07 01:44 | -41.18321 | 174.68513 | 5801 ft | 104 kts | 317° |
| 2026-05-07 01:45 | -41.17806 | 174.67841 | 5978 ft | 104 kts | 317° |
| 2026-05-07 01:45 | -41.17287 | 174.67164 | 6159 ft | 105 kts | 317° |
| 2026-05-07 01:45 | -41.16765 | 174.66481 | 6339 ft | 105 kts | 317° |
| 2026-05-07 01:45 | -41.16242 | 174.65799 | 6514 ft | 105 kts | 316° |
| 2026-05-07 01:46 | -41.15721 | 174.65119 | 6681 ft | 105 kts | 316° |
| 2026-05-07 01:46 | -41.15199 | 174.64437 | 6850 ft | 105 kts | 316° |
| 2026-05-07 01:46 | -41.14677 | 174.63757 | 7010 ft | 105 kts | 316° |
| 2026-05-07 01:46 | -41.14155 | 174.63076 | 7181 ft | 105 kts | 316° |
| 2026-05-07 01:47 | -41.13788 | 174.62248 | 7357 ft | 111 kts | 287° |
| 2026-05-07 01:47 | -41.13826 | 174.61191 | 7533 ft | 115 kts | 279° |
| 2026-05-07 01:47 | -41.13856 | 174.60151 | 7700 ft | 114 kts | 280° |
| 2026-05-07 01:47 | -41.13889 | 174.59096 | 7873 ft | 114 kts | 280° |
| 2026-05-07 01:48 | -41.13921 | 174.58035 | 7980 ft | 119 kts | 279° |
| 2026-05-07 01:48 | -41.13952 | 174.56893 | 7990 ft | 128 kts | 279° |
| 2026-05-07 01:48 | -41.13989 | 174.55687 | 7994 ft | 134 kts | 278° |
| 2026-05-07 01:48 | -41.14029 | 174.54434 | 7995 ft | 138 kts | 278° |
| 2026-05-07 01:49 | -41.14069 | 174.53146 | 7995 ft | 141 kts | 278° |
| 2026-05-07 01:49 | -41.14110 | 174.51841 | 7995 ft | 142 kts | 278° |
| 2026-05-07 01:49 | -41.14151 | 174.50526 | 7997 ft | 143 kts | 278° |
| 2026-05-07 01:49 | -41.14191 | 174.49205 | 7996 ft | 143 kts | 278° |
| 2026-05-07 01:50 | -41.14232 | 174.47880 | 7999 ft | 144 kts | 278° |
| 2026-05-07 01:50 | -41.14272 | 174.46556 | 7994 ft | 144 kts | 278° |
| 2026-05-07 01:50 | -41.14311 | 174.45229 | 7992 ft | 144 kts | 278° |
| 2026-05-07 01:50 | -41.14351 | 174.43906 | 7994 ft | 144 kts | 278° |
| 2026-05-07 01:51 | -41.14389 | 174.42581 | 7994 ft | 144 kts | 278° |
| 2026-05-07 01:51 | -41.14428 | 174.41256 | 7998 ft | 144 kts | 278° |
| 2026-05-07 01:51 | -41.14467 | 174.39928 | 7998 ft | 144 kts | 278° |
| 2026-05-07 01:51 | -41.14505 | 174.38595 | 7997 ft | 145 kts | 278° |
| 2026-05-07 01:52 | -41.14527 | 174.37275 | 8009 ft | 140 kts | 277° |
| 2026-05-07 01:52 | -41.14586 | 174.35962 | 7990 ft | 143 kts | 277° |
| 2026-05-07 01:52 | -41.14626 | 174.34642 | 7989 ft | 143 kts | 278° |
| 2026-05-07 01:52 | -41.14661 | 174.33340 | 7993 ft | 143 kts | 278° |
| 2026-05-07 01:53 | -41.14696 | 174.32022 | 7993 ft | 143 kts | 278° |
| 2026-05-07 01:53 | -41.14733 | 174.30702 | 7992 ft | 143 kts | 278° |
| 2026-05-07 01:53 | -41.14770 | 174.29383 | 7989 ft | 143 kts | 278° |
| 2026-05-07 01:53 | -41.14808 | 174.28063 | 7996 ft | 143 kts | 278° |
| 2026-05-07 01:54 | -41.14844 | 174.26743 | 7992 ft | 143 kts | 278° |
| 2026-05-07 01:54 | -41.14881 | 174.25425 | 7992 ft | 143 kts | 278° |
| 2026-05-07 01:54 | -41.14917 | 174.24103 | 7991 ft | 143 kts | 278° |
| 2026-05-07 01:54 | -41.14954 | 174.22784 | 7990 ft | 143 kts | 278° |
| 2026-05-07 01:55 | -41.14991 | 174.21467 | 7989 ft | 143 kts | 278° |
| 2026-05-07 01:55 | -41.15027 | 174.20148 | 7989 ft | 143 kts | 278° |
| 2026-05-07 01:55 | -41.15063 | 174.18825 | 7985 ft | 143 kts | 278° |
| 2026-05-07 01:55 | -41.15098 | 174.17502 | 7990 ft | 144 kts | 278° |
| 2026-05-07 01:56 | -41.15133 | 174.16178 | 7985 ft | 147 kts | 277° |
| 2026-05-07 01:56 | -41.15171 | 174.14804 | 7975 ft | 147 kts | 277° |
| 2026-05-07 01:56 | -41.15209 | 174.13474 | 7979 ft | 147 kts | 278° |
| 2026-05-07 01:56 | -41.15245 | 174.12130 | 7968 ft | 144 kts | 277° |
| 2026-05-07 01:57 | -41.15281 | 174.10822 | 7978 ft | 141 kts | 278° |
| 2026-05-07 01:57 | -41.15311 | 174.09507 | 7985 ft | 144 kts | 278° |
| 2026-05-07 01:57 | -41.15349 | 174.08184 | 7975 ft | 143 kts | 279° |
| 2026-05-07 01:57 | -41.15350 | 174.06872 | 7985 ft | 142 kts | 286° |
| 2026-05-07 01:58 | -41.15186 | 174.05568 | 7977 ft | 145 kts | 287° |
| 2026-05-07 01:58 | -41.15034 | 174.04257 | 7982 ft | 142 kts | 287° |
| 2026-05-07 01:58 | -41.14889 | 174.02964 | 7985 ft | 143 kts | 287° |
| 2026-05-07 01:58 | -41.14749 | 174.01695 | 7999 ft | 134 kts | 287° |
| 2026-05-07 01:59 | -41.14604 | 174.00445 | 7985 ft | 141 kts | 286° |
| 2026-05-07 01:59 | -41.14457 | 173.99147 | 7981 ft | 142 kts | 286° |
| 2026-05-07 01:59 | -41.14312 | 173.97856 | 7982 ft | 141 kts | 287° |
| 2026-05-07 01:59 | -41.14170 | 173.96573 | 7988 ft | 141 kts | 286° |
| 2026-05-07 02:00 | -41.14023 | 173.95293 | 7970 ft | 139 kts | 287° |
| 2026-05-07 02:00 | -41.13880 | 173.94034 | 7978 ft | 138 kts | 287° |
| 2026-05-07 02:00 | -41.13736 | 173.92773 | 7982 ft | 139 kts | 287° |
| 2026-05-07 02:00 | -41.13596 | 173.91526 | 7991 ft | 141 kts | 286° |
| 2026-05-07 02:01 | -41.13444 | 173.90232 | 7981 ft | 144 kts | 287° |
| 2026-05-07 02:01 | -41.13290 | 173.88913 | 7982 ft | 144 kts | 287° |
| 2026-05-07 02:01 | -41.13144 | 173.87601 | 7982 ft | 144 kts | 287° |
| 2026-05-07 02:01 | -41.12993 | 173.86270 | 7991 ft | 149 kts | 285° |
| 2026-05-07 02:02 | -41.12835 | 173.84896 | 7926 ft | 144 kts | 286° |
| 2026-05-07 02:02 | -41.12691 | 173.83655 | 7991 ft | 130 kts | 287° |
| 2026-05-07 02:02 | -41.12556 | 173.82439 | 7963 ft | 133 kts | 287° |
| 2026-05-07 02:02 | -41.12417 | 173.81236 | 7951 ft | 132 kts | 287° |
| 2026-05-07 02:03 | -41.12299 | 173.80093 | 7987 ft | 115 kts | 287° |
| 2026-05-07 02:03 | -41.12160 | 173.78992 | 7982 ft | 131 kts | 288° |
| 2026-05-07 02:03 | -41.12013 | 173.77769 | 7989 ft | 135 kts | 287° |
| 2026-05-07 02:03 | -41.11871 | 173.76515 | 7977 ft | 140 kts | 287° |
| 2026-05-07 02:04 | -41.11726 | 173.75239 | 7995 ft | 140 kts | 287° |
| 2026-05-07 02:04 | -41.11572 | 173.73963 | 7953 ft | 135 kts | 288° |
| 2026-05-07 02:04 | -41.11448 | 173.72804 | 7999 ft | 122 kts | 287° |
| 2026-05-07 02:04 | -41.11311 | 173.71631 | 7967 ft | 134 kts | 288° |
| 2026-05-07 02:05 | -41.11172 | 173.70424 | 7990 ft | 132 kts | 287° |
| 2026-05-07 02:05 | -41.11028 | 173.69197 | 7990 ft | 137 kts | 286° |
| 2026-05-07 02:05 | -41.10877 | 173.67908 | 7978 ft | 144 kts | 287° |
| 2026-05-07 02:05 | -41.10726 | 173.66617 | 7982 ft | 143 kts | 287° |
| 2026-05-07 02:06 | -41.10579 | 173.65330 | 7964 ft | 139 kts | 287° |
| 2026-05-07 02:06 | -41.10444 | 173.64142 | 7972 ft | 123 kts | 288° |
| 2026-05-07 02:06 | -41.10311 | 173.63017 | 7991 ft | 127 kts | 288° |
| 2026-05-07 02:06 | -41.10172 | 173.61835 | 7982 ft | 132 kts | 288° |
| 2026-05-07 02:07 | -41.10030 | 173.60624 | 7971 ft | 133 kts | 288° |
| 2026-05-07 02:07 | -41.09748 | 173.58228 | 7980 ft | 136 kts | 287° |
| 2026-05-07 02:07 | -41.09601 | 173.56967 | 7974 ft | 140 kts | 288° |
| 2026-05-07 02:08 | -41.09452 | 173.55703 | 7976 ft | 139 kts | 287° |
| 2026-05-07 02:08 | -41.09426 | 173.54404 | 7987 ft | 150 kts | 268° |
| 2026-05-07 02:08 | -41.09999 | 173.53149 | 7987 ft | 168 kts | 242° |
| 2026-05-07 02:08 | -41.10782 | 173.51991 | 7980 ft | 170 kts | 242° |
| 2026-05-07 02:09 | -41.11562 | 173.50794 | 7970 ft | 173 kts | 242° |
| 2026-05-07 02:09 | -41.12343 | 173.49593 | 7968 ft | 171 kts | 243° |
| 2026-05-07 02:09 | -41.13115 | 173.48404 | 7971 ft | 169 kts | 243° |
| 2026-05-07 02:09 | -41.13879 | 173.47224 | 7964 ft | 168 kts | 243° |
| 2026-05-07 02:10 | -41.14638 | 173.46051 | 7960 ft | 167 kts | 243° |
| 2026-05-07 02:10 | -41.15395 | 173.44881 | 7960 ft | 167 kts | 243° |
| 2026-05-07 02:10 | -41.16154 | 173.43708 | 7960 ft | 167 kts | 243° |
| 2026-05-07 02:10 | -41.16903 | 173.42550 | 7963 ft | 165 kts | 243° |
| 2026-05-07 02:11 | -41.17586 | 173.41497 | 7960 ft | 165 kts | 243° |
| 2026-05-07 02:11 | -41.18333 | 173.40337 | 7952 ft | 166 kts | 243° |
| 2026-05-07 02:11 | -41.19067 | 173.39176 | 7960 ft | 161 kts | 248° |
| 2026-05-07 02:11 | -41.19454 | 173.37868 | 7957 ft | 149 kts | 270° |
| 2026-05-07 02:12 | -41.19679 | 173.36507 | 7960 ft | 153 kts | 268° |
| 2026-05-07 02:12 | -41.19932 | 173.35137 | 7957 ft | 152 kts | 268° |
| 2026-05-07 02:12 | -41.20175 | 173.33777 | 7955 ft | 151 kts | 268° |
| 2026-05-07 02:12 | -41.20416 | 173.32427 | 7953 ft | 150 kts | 269° |
| 2026-05-07 02:13 | -41.20655 | 173.31074 | 7953 ft | 150 kts | 268° |
| 2026-05-07 02:13 | -41.20896 | 173.29721 | 7950 ft | 151 kts | 269° |
| 2026-05-07 02:13 | -41.21137 | 173.28367 | 7954 ft | 151 kts | 269° |
| 2026-05-07 02:13 | -41.21369 | 173.27060 | 7952 ft | 150 kts | 268° |
| 2026-05-07 02:14 | -41.21616 | 173.25668 | 7950 ft | 150 kts | 269° |
| 2026-05-07 02:14 | -41.21855 | 173.24321 | 7946 ft | 150 kts | 269° |
| 2026-05-07 02:14 | -41.22094 | 173.22972 | 7945 ft | 150 kts | 269° |
| 2026-05-07 02:14 | -41.22333 | 173.21621 | 7948 ft | 150 kts | 269° |
| 2026-05-07 02:15 | -41.22572 | 173.20267 | 7948 ft | 151 kts | 268° |
| 2026-05-07 02:15 | -41.22809 | 173.18922 | 7948 ft | 151 kts | 269° |
| 2026-05-07 02:15 | -41.23049 | 173.17562 | 7948 ft | 151 kts | 269° |
| 2026-05-07 02:15 | -41.23289 | 173.16205 | 7948 ft | 151 kts | 269° |
| 2026-05-07 02:16 | -41.23532 | 173.14848 | 7947 ft | 152 kts | 267° |
| 2026-05-07 02:16 | -41.24081 | 173.13576 | 7949 ft | 168 kts | 243° |
| 2026-05-07 02:16 | -41.24845 | 173.12363 | 7750 ft | 174 kts | 244° |
| 2026-05-07 02:16 | -41.25601 | 173.11100 | 7507 ft | 174 kts | 244° |
| 2026-05-07 02:17 | -41.26354 | 173.09853 | 7264 ft | 171 kts | 244° |
| 2026-05-07 02:17 | -41.27084 | 173.08644 | 7014 ft | 164 kts | 244° |
| 2026-05-07 02:17 | -41.27781 | 173.07485 | 6758 ft | 157 kts | 245° |
| 2026-05-07 02:17 | -41.28453 | 173.06365 | 6516 ft | 154 kts | 245° |
| 2026-05-07 02:18 | -41.29120 | 173.05250 | 6256 ft | 154 kts | 244° |
| 2026-05-07 02:18 | -41.29782 | 173.04145 | 5995 ft | 152 kts | 244° |
| 2026-05-07 02:18 | -41.30420 | 173.03080 | 5941 ft | 140 kts | 245° |
| 2026-05-07 02:18 | -41.31011 | 173.02080 | 5781 ft | 139 kts | 245° |
| 2026-05-07 02:19 | -41.31628 | 173.01030 | 5531 ft | 148 kts | 243° |
| 2026-05-07 02:19 | -41.32059 | 173.00315 | 5363 ft | 151 kts | 242° |
| 2026-05-07 02:19 | -41.32719 | 172.99223 | 5111 ft | 151 kts | 241° |
| 2026-05-07 02:19 | -41.33382 | 172.98129 | 4881 ft | 153 kts | 240° |
| 2026-05-07 02:20 | -41.34174 | 172.97145 | 4617 ft | 165 kts | 212° |
| 2026-05-07 02:20 | -41.35317 | 172.96854 | 4362 ft | 172 kts | 177° |
| 2026-05-07 02:20 | -41.36749 | 172.97682 | 4036 ft | 170 kts | 145° |
| 2026-05-07 02:20 | -41.37749 | 172.98531 | 3793 ft | 170 kts | 146° |
| 2026-05-07 02:21 | -41.38431 | 172.99089 | 3618 ft | 170 kts | 146° |
| 2026-05-07 02:21 | -41.39432 | 172.99909 | 3381 ft | 168 kts | 146° |
| 2026-05-07 02:21 | -41.40295 | 173.00896 | 3236 ft | 157 kts | 120° |
| 2026-05-07 02:21 | -41.40715 | 173.02148 | 3233 ft | 142 kts | 95° |
| 2026-05-07 02:22 | -41.40751 | 173.03396 | 3228 ft | 130 kts | 73° |
| 2026-05-07 02:22 | -41.40485 | 173.04492 | 3231 ft | 121 kts | 54° |
| 2026-05-07 02:22 | -41.40038 | 173.05430 | 3148 ft | 122 kts | 50° |
| 2026-05-07 02:22 | -41.39583 | 173.06423 | 2990 ft | 129 kts | 50° |
| 2026-05-07 02:23 | -41.39104 | 173.07453 | 2814 ft | 132 kts | 51° |
| 2026-05-07 02:23 | -41.38623 | 173.08477 | 2637 ft | 132 kts | 49° |
| 2026-05-07 02:23 | -41.38140 | 173.09515 | 2455 ft | 133 kts | 50° |
| 2026-05-07 02:23 | -41.37653 | 173.10562 | 2261 ft | 130 kts | 51° |
| 2026-05-07 02:24 | -41.37198 | 173.11547 | 2082 ft | 121 kts | 50° |
| 2026-05-07 02:24 | -41.36735 | 173.12446 | 1913 ft | 115 kts | 41° |
| 2026-05-07 02:24 | -41.36142 | 173.13279 | 1751 ft | 133 kts | 43° |
| 2026-05-07 02:24 | -41.35492 | 173.14241 | 1561 ft | 145 kts | 44° |
| 2026-05-07 02:25 | -41.34807 | 173.15268 | 1354 ft | 152 kts | 46° |
| 2026-05-07 02:25 | -41.34094 | 173.16329 | 1145 ft | 155 kts | 45° |
| 2026-05-07 02:25 | -41.33396 | 173.17374 | 928 ft | 142 kts | 45° |
| 2026-05-07 02:25 | -41.32786 | 173.18298 | 740 ft | 125 kts | 45° |
| 2026-05-07 02:26 | -41.32236 | 173.19122 | 568 ft | 113 kts | 41° |
| 2026-05-07 02:26 | -41.31742 | 173.19860 | 424 ft | 101 kts | 41° |
| 2026-05-07 02:26 | -41.31360 | 173.20505 | 405 ft | 75 kts | 39° |
| 2026-05-07 02:26 | -41.30981 | 173.20912 | 334 ft | 68 kts | 30° |
| 2026-05-07 02:27 | -41.30632 | 173.21332 | 227 ft | 68 kts | 32° |
| 2026-05-07 02:27 | -41.30276 | 173.21726 | 115 ft | 63 kts | 32° |
| 2026-05-07 02:27 | -41.29970 | 173.22094 | 50 ft | 54 kts | 31° |
| 2026-05-07 02:27 | -41.29781 | 173.22302 | 48 ft | 19 kts | 34° |
| 2026-05-07 02:28 | -41.29728 | 173.22418 | 47 ft | 15 kts | 120° |
| 2026-05-07 02:28 | -41.29799 | 173.22490 | 46 ft | 12 kts | 191° |
| 2026-05-07 02:28 | -41.29875 | 173.22416 | 46 ft | 13 kts | 220° |
| 2026-05-07 02:28 | -41.29936 | 173.22345 | 47 ft | 10 kts | 218° |
| 2026-05-07 02:29 | -41.29981 | 173.22364 | 47 ft | 7 kts | 136° |
| 2026-05-07 02:29 | -41.29997 | 173.22396 | 47 ft | 1 kts | 48° |
| 2026-05-07 02:29 | -41.29980 | 173.22416 | 47 ft | 4 kts | 41° |
| 2026-05-07 02:29 | -41.29979 | 173.22417 | 47 ft | 0 kts | 41° |